createdAt,value
2023-02-09T00:02:12.600Z,23.13
2023-02-09T00:04:39.209Z,24.75
2023-02-09T00:07:05.743Z,21.88
2023-02-09T00:09:32.353Z,19.23
2023-02-09T00:12:17.538Z,15.70
2023-02-09T00:14:44.324Z,20.20
2023-02-09T00:17:10.977Z,22.35
2023-02-09T00:19:37.579Z,22.70
2023-02-09T00:22:04.342Z,27.65
2023-02-09T00:24:30.902Z,28.17
2023-02-09T00:26:57.706Z,22.27
2023-02-09T00:29:24.406Z,26.63
2023-02-09T00:31:51.605Z,26.40
2023-02-09T00:34:19.086Z,20.02
2023-02-09T00:36:46.934Z,19.55
2023-02-09T00:39:13.780Z,21.27
2023-02-09T00:41:58.992Z,18.40
2023-02-09T00:44:25.599Z,27.02
2023-02-09T00:46:52.731Z,18.52
2023-02-09T00:49:19.282Z,21.00
2023-02-09T00:51:46.636Z,19.85
2023-02-09T00:54:14.039Z,12.50
2023-02-09T00:56:40.562Z,20.25
2023-02-09T00:59:07.251Z,22.17
2023-02-09T01:01:33.866Z,21.40
2023-02-09T01:04:00.598Z,18.15
2023-02-09T01:06:28.312Z,18.70
2023-02-09T01:08:56.892Z,17.92
2023-02-09T01:11:28.018Z,16.65
2023-02-09T01:13:55.632Z,22.92
2023-02-09T01:16:22.528Z,24.45
2023-02-09T01:18:49.324Z,19.38
2023-02-09T01:21:20.213Z,21.65
2023-02-09T01:23:47.263Z,24.73
2023-02-09T01:26:15.108Z,22.52
2023-02-09T01:28:41.942Z,26.90
2023-02-09T01:31:19.030Z,18.38
2023-02-09T01:33:45.673Z,24.33
2023-02-09T01:36:12.203Z,21.02
2023-02-09T01:38:38.774Z,24.95
2023-02-09T01:41:05.466Z,41.17
2023-02-09T01:43:47.883Z,30.95
2023-02-09T01:46:14.499Z,47.28
2023-02-09T01:48:41.264Z,25.27
2023-02-09T01:51:08.026Z,44.67
2023-02-09T01:53:35.055Z,67.05
2023-02-09T01:56:07.381Z,84.22
2023-02-09T01:58:34.979Z,46.65
2023-02-09T02:01:03.442Z,22.92
2023-02-09T02:03:31.036Z,26.65
2023-02-09T02:06:05.027Z,30.58
2023-02-09T02:08:47.025Z,34.28
2023-02-09T02:11:13.661Z,31.90
2023-02-09T02:13:40.511Z,24.63
2023-02-09T02:16:17.838Z,33.17
2023-02-09T02:18:49.937Z,22.48
2023-02-09T02:21:19.088Z,17.95
2023-02-09T02:23:51.636Z,33.30
2023-02-09T02:26:37.006Z,19.38
2023-02-09T02:29:23.043Z,26.27
2023-02-09T02:32:08.418Z,30.92
2023-02-09T02:34:41.219Z,43.03
2023-02-09T02:37:16.421Z,28.92
2023-02-09T02:39:52.586Z,25.38
2023-02-09T02:42:44.165Z,23.30
2023-02-09T02:45:13.693Z,31.67
2023-02-09T02:47:41.890Z,23.85
2023-02-09T02:50:13.865Z,22.77
2023-02-09T02:52:42.589Z,52.20
2023-02-09T02:55:11.645Z,42.90
2023-02-09T02:57:40.142Z,31.25
2023-02-09T03:00:10.501Z,24.38
2023-02-09T03:02:39.879Z,58.13
2023-02-09T03:05:07.112Z,43.58
2023-02-09T03:07:33.720Z,40.20
2023-02-09T03:10:02.725Z,88.90
2023-02-09T03:12:38.853Z,37.00
2023-02-09T03:15:30.422Z,46.97
2023-02-09T03:18:04.898Z,33.15
2023-02-09T03:20:50.459Z,50.25
2023-02-09T03:23:23.730Z,39.33
2023-02-09T03:25:52.402Z,36.60
2023-02-09T03:28:30.483Z,34.45
2023-02-09T03:30:57.977Z,61.78
2023-02-09T03:33:26.422Z,47.47
2023-02-09T03:35:57.430Z,59.35
2023-02-09T03:38:24.155Z,99.03
2023-02-09T03:40:50.702Z,101.35
2023-02-09T03:43:17.706Z,31.77
2023-02-09T03:45:44.438Z,37.30
2023-02-09T03:48:11.156Z,23.70
2023-02-09T03:50:37.843Z,27.65
2023-02-09T03:53:07.353Z,32.47
2023-02-09T03:55:34.069Z,64.28
2023-02-09T03:58:00.924Z,65.20
2023-02-09T04:00:27.930Z,26.38
2023-02-09T04:02:54.805Z,30.77
2023-02-09T04:05:22.961Z,31.02
2023-02-09T04:07:50.135Z,27.55
2023-02-09T04:10:16.769Z,36.58
2023-02-09T04:12:43.493Z,26.20
2023-02-09T04:15:10.223Z,40.75
2023-02-09T04:17:36.795Z,115.63
2023-02-09T04:20:03.573Z,27.30
2023-02-09T04:22:30.173Z,29.45
2023-02-09T04:24:56.677Z,54.10
2023-02-09T04:27:23.222Z,24.30
2023-02-09T04:29:49.776Z,28.75
2023-02-09T04:32:16.266Z,26.77
2023-02-09T04:34:42.812Z,26.30
2023-02-09T04:37:09.306Z,32.45
2023-02-09T04:39:35.818Z,27.30
2023-02-09T04:42:02.330Z,27.40
2023-02-09T04:44:28.854Z,93.57
2023-02-09T04:46:55.431Z,44.42
2023-02-09T04:49:22.139Z,25.00
2023-02-09T04:51:48.691Z,39.60
2023-02-09T04:54:15.382Z,22.40
2023-02-09T04:56:41.986Z,30.92
2023-02-09T04:59:27.867Z,209.70
2023-02-09T05:01:54.410Z,22.27
2023-02-09T05:04:21.040Z,37.55
2023-02-09T05:06:47.518Z,27.30
2023-02-09T05:09:14.028Z,24.95
2023-02-09T05:11:40.731Z,25.25
2023-02-09T05:14:07.804Z,31.45
2023-02-09T05:16:34.385Z,22.73
2023-02-09T05:19:00.997Z,22.73
2023-02-09T05:21:27.618Z,25.35
2023-02-09T05:23:54.267Z,24.90
2023-02-09T05:26:20.810Z,28.85
2023-02-09T05:28:47.531Z,34.33
2023-02-09T05:31:14.127Z,29.05
2023-02-09T05:33:40.698Z,22.17
2023-02-09T05:36:09.595Z,36.05
2023-02-09T05:38:36.696Z,25.25
2023-02-09T05:41:04.182Z,24.40
2023-02-09T05:43:30.729Z,24.42
2023-02-09T05:45:57.263Z,27.35
2023-02-09T05:48:23.905Z,25.25
2023-02-09T05:50:50.591Z,28.20
2023-02-09T05:53:17.164Z,39.70
2023-02-09T05:55:44.001Z,26.27
2023-02-09T05:58:10.608Z,23.00
2023-02-09T06:00:37.119Z,18.90
2023-02-09T06:03:03.935Z,15.32
2023-02-09T06:05:30.719Z,20.65
2023-02-09T06:07:58.196Z,11.57
2023-02-09T06:10:24.823Z,13.52
2023-02-09T06:12:51.382Z,29.25
2023-02-09T06:15:17.916Z,32.10
2023-02-09T06:17:44.595Z,31.98
2023-02-09T06:20:11.671Z,40.17
2023-02-09T06:22:38.168Z,29.40
2023-02-09T06:25:04.863Z,43.83
2023-02-09T06:27:31.583Z,34.15
2023-02-09T06:29:58.100Z,47.10
2023-02-09T06:32:24.847Z,35.10
2023-02-09T06:34:51.472Z,28.95
2023-02-09T06:37:18.100Z,28.80
2023-02-09T06:39:44.731Z,37.97
2023-02-09T06:42:11.346Z,37.10
2023-02-09T06:44:37.850Z,38.67
2023-02-09T06:47:04.534Z,49.58
2023-02-09T06:49:31.404Z,35.03
2023-02-09T06:51:58.425Z,24.95
2023-02-09T06:54:25.997Z,19.15
2023-02-09T06:56:52.544Z,36.67
2023-02-09T06:59:19.419Z,33.05
2023-02-09T07:01:46.299Z,38.10
2023-02-09T07:04:13.072Z,49.65
2023-02-09T07:06:39.649Z,35.58
2023-02-09T07:09:06.220Z,39.10
2023-02-09T07:11:32.862Z,44.35
2023-02-09T07:13:59.442Z,29.95
2023-02-09T07:16:26.257Z,36.28
2023-02-09T07:18:53.009Z,48.42
2023-02-09T07:21:21.490Z,28.35
2023-02-09T07:23:48.258Z,31.48
2023-02-09T07:26:16.667Z,35.90
2023-02-09T07:28:43.705Z,29.08
2023-02-09T07:31:12.710Z,29.95
2023-02-09T07:34:00.925Z,32.17
2023-02-09T07:36:27.539Z,30.30
2023-02-09T07:38:55.387Z,33.40
2023-02-09T07:41:25.862Z,20.92
2023-02-09T07:43:52.902Z,17.70
2023-02-09T07:46:21.185Z,16.38
2023-02-09T07:48:48.298Z,22.45
2023-02-09T07:51:25.448Z,27.05
2023-02-09T07:53:52.578Z,25.55
2023-02-09T07:56:19.280Z,30.65
2023-02-09T07:58:45.887Z,37.05
2023-02-09T08:01:12.845Z,32.70
2023-02-09T08:03:40.693Z,29.52
2023-02-09T08:06:19.731Z,37.33
2023-02-09T08:08:47.792Z,28.00
2023-02-09T08:11:15.070Z,27.60
2023-02-09T08:13:41.874Z,31.63
2023-02-09T08:16:11.700Z,28.48
2023-02-09T08:18:50.300Z,26.48
2023-02-09T08:21:17.659Z,26.52
2023-02-09T08:23:45.317Z,21.05
2023-02-09T08:26:13.657Z,30.08
2023-02-09T08:28:45.552Z,35.40
2023-02-09T08:31:13.834Z,22.83
2023-02-09T08:33:41.021Z,27.83
2023-02-09T08:36:07.666Z,27.65
2023-02-09T08:38:34.286Z,25.95
2023-02-09T08:41:07.852Z,24.40
2023-02-09T08:43:34.889Z,26.92
2023-02-09T08:46:12.884Z,27.83
2023-02-09T08:48:40.466Z,19.07
2023-02-09T08:51:08.324Z,24.30
2023-02-09T08:53:35.348Z,25.55
2023-02-09T08:56:01.880Z,29.00
2023-02-09T08:58:30.271Z,26.37
2023-02-09T09:00:57.466Z,24.43
2023-02-09T09:03:27.783Z,24.90
2023-02-09T09:05:58.241Z,20.83
2023-02-09T09:08:25.210Z,27.10
2023-02-09T09:10:51.767Z,29.00
2023-02-09T09:13:18.268Z,25.90
2023-02-09T09:15:46.014Z,44.23
2023-02-09T09:18:13.096Z,24.67
2023-02-09T09:20:39.988Z,28.23
2023-02-09T09:23:06.573Z,30.77
2023-02-09T09:25:33.157Z,24.13
2023-02-09T09:27:59.668Z,25.57
2023-02-09T09:30:26.207Z,23.30
2023-02-09T09:32:53.175Z,25.90
2023-02-09T09:35:19.772Z,26.50
2023-02-09T09:37:46.357Z,40.73
2023-02-09T09:40:21.393Z,45.10
2023-02-09T09:42:51.346Z,25.40
2023-02-09T09:45:19.603Z,23.23
2023-02-09T09:47:46.148Z,34.27
2023-02-09T09:50:15.980Z,27.53
2023-02-09T09:52:44.822Z,24.40
2023-02-09T09:55:19.565Z,32.63
2023-02-09T09:57:46.597Z,28.57
2023-02-09T10:00:18.115Z,38.07
2023-02-09T10:02:45.100Z,28.17
2023-02-09T10:05:22.363Z,33.93
2023-02-09T10:08:01.333Z,24.13
2023-02-09T10:10:41.567Z,36.47
2023-02-09T10:13:13.356Z,42.10
2023-02-09T10:15:41.255Z,211.70
2023-02-09T10:18:13.874Z,40.27
2023-02-09T10:20:50.975Z,54.60
2023-02-09T10:23:25.725Z,106.60
2023-02-09T10:25:52.234Z,27.43
2023-02-09T10:28:23.109Z,33.90
2023-02-09T10:30:53.809Z,35.50
2023-02-09T10:33:20.596Z,20.23
2023-02-09T10:35:57.727Z,31.90
2023-02-09T10:38:25.210Z,26.10
2023-02-09T10:40:52.050Z,17.67
2023-02-09T10:43:32.455Z,23.53
2023-02-09T10:46:16.301Z,22.43
2023-02-09T10:48:44.747Z,31.03
2023-02-09T10:51:38.013Z,20.50
2023-02-09T10:54:07.313Z,38.77
2023-02-09T10:56:42.750Z,17.90
2023-02-09T10:59:18.691Z,15.37
2023-02-09T11:01:51.306Z,44.90
2023-02-09T11:04:19.937Z,12.13
2023-02-09T11:06:50.522Z,28.17
2023-02-09T11:09:18.360Z,23.27
2023-02-09T11:11:45.354Z,22.30
2023-02-09T11:14:13.655Z,17.80
2023-02-09T11:16:59.114Z,18.50
2023-02-09T11:19:44.029Z,26.50
2023-02-09T11:22:21.045Z,12.03
2023-02-09T11:24:55.486Z,14.43
2023-02-09T11:27:38.321Z,25.90
2023-02-09T11:30:23.795Z,12.43
2023-02-09T11:33:03.809Z,18.70
2023-02-09T11:36:06.126Z,22.10
2023-02-09T11:38:38.404Z,17.63
2023-02-09T11:41:27.646Z,17.67
2023-02-09T11:43:55.824Z,26.43
2023-02-09T11:46:23.894Z,51.27
2023-02-09T11:48:54.438Z,17.87
2023-02-09T11:51:22.479Z,19.97
2023-02-09T11:54:08.928Z,13.03
2023-02-09T11:56:37.648Z,18.10
2023-02-09T11:59:08.730Z,24.43
2023-02-09T12:01:41.363Z,20.40
2023-02-09T12:04:17.896Z,22.23
2023-02-09T12:06:46.546Z,22.00
2023-02-09T12:09:22.941Z,17.43
2023-02-09T12:11:57.415Z,19.50
2023-02-09T12:14:32.066Z,18.23
2023-02-09T12:17:08.154Z,13.67
2023-02-09T12:19:36.331Z,18.70
2023-02-09T12:22:21.587Z,18.87
2023-02-09T12:25:06.974Z,15.37
2023-02-09T12:27:33.598Z,17.33
2023-02-09T12:30:00.140Z,19.30
2023-02-09T12:32:41.131Z,20.10
2023-02-09T12:35:25.001Z,17.10
2023-02-09T12:38:07.397Z,19.60
2023-02-09T12:40:37.621Z,19.00
2023-02-09T12:43:24.092Z,23.77
2023-02-09T12:46:10.808Z,21.67
2023-02-09T12:48:56.344Z,24.70
2023-02-09T12:51:41.261Z,24.43
2023-02-09T12:54:26.848Z,17.20
2023-02-09T12:56:53.519Z,21.80
2023-02-09T12:59:21.593Z,23.90
2023-02-09T13:02:06.793Z,24.70
2023-02-09T13:04:50.325Z,22.13
2023-02-09T13:07:43.137Z,28.60
2023-02-09T13:10:28.801Z,23.33
2023-02-09T13:13:15.569Z,26.80
2023-02-09T13:15:54.633Z,34.53
2023-02-09T13:18:39.539Z,20.00
2023-02-09T13:21:27.181Z,47.07
2023-02-09T13:23:56.931Z,25.10
2023-02-09T13:26:26.977Z,19.07
2023-02-09T13:29:19.239Z,18.53
2023-02-09T13:31:56.587Z,20.30
2023-02-09T13:34:38.392Z,18.63
2023-02-09T13:37:10.975Z,23.20
2023-02-09T13:39:38.754Z,23.90
2023-02-09T13:42:12.035Z,24.53
2023-02-09T13:44:43.114Z,24.90
2023-02-09T13:47:13.294Z,20.67
2023-02-09T13:49:39.814Z,22.70
2023-02-09T13:52:09.547Z,22.80
2023-02-09T13:54:36.089Z,24.37
2023-02-09T13:57:02.653Z,24.10
2023-02-09T13:59:29.811Z,22.53
2023-02-09T14:01:56.409Z,23.10
2023-02-09T14:04:25.698Z,23.47
2023-02-09T14:06:55.206Z,21.80
2023-02-09T14:09:24.370Z,29.60
2023-02-09T14:11:54.844Z,23.30
2023-02-09T14:14:21.468Z,38.07
2023-02-09T14:16:53.884Z,29.00
2023-02-09T14:19:30.098Z,27.90
2023-02-09T14:21:57.171Z,27.03
2023-02-09T14:24:27.700Z,28.77
2023-02-09T14:27:04.819Z,24.77
2023-02-09T14:29:32.570Z,37.50
2023-02-09T14:32:00.519Z,27.87
2023-02-09T14:34:27.050Z,40.53
2023-02-09T14:36:55.034Z,31.53
2023-02-09T14:39:21.874Z,25.80
2023-02-09T14:41:58.405Z,27.60
2023-02-09T14:44:25.566Z,39.93
2023-02-09T14:46:56.941Z,24.37
2023-02-09T14:49:24.141Z,29.63
2023-02-09T14:51:56.908Z,27.77
2023-02-09T14:54:25.453Z,26.13
2023-02-09T14:56:57.984Z,33.20
2023-02-09T14:59:25.269Z,36.97
2023-02-09T15:01:52.761Z,27.17
2023-02-09T15:04:19.544Z,31.87
2023-02-09T15:06:56.605Z,29.00
2023-02-09T15:09:29.398Z,42.23
2023-02-09T15:12:05.131Z,66.27
2023-02-09T15:14:45.692Z,85.73
2023-02-09T15:17:13.982Z,36.83
2023-02-09T15:19:40.621Z,48.83
2023-02-09T15:22:08.621Z,31.37
2023-02-09T15:24:35.904Z,31.60
2023-02-09T15:27:02.889Z,31.30
2023-02-09T15:29:30.475Z,46.20
2023-02-09T15:31:57.084Z,34.57
2023-02-09T15:34:24.082Z,32.43
2023-02-09T15:36:50.904Z,35.20
2023-02-09T15:39:20.560Z,28.97
2023-02-09T15:42:06.072Z,31.73
2023-02-09T15:44:51.859Z,32.63
2023-02-09T15:47:37.276Z,31.27
2023-02-09T15:50:04.197Z,32.00
2023-02-09T15:52:30.943Z,34.93
2023-02-09T15:54:57.616Z,40.47
2023-02-09T15:57:25.482Z,31.20
2023-02-09T15:59:52.275Z,31.87
2023-02-09T16:02:22.584Z,42.37
2023-02-09T16:04:49.247Z,37.07
2023-02-09T16:07:21.876Z,35.50
2023-02-09T16:09:48.523Z,38.33
2023-02-09T16:12:15.254Z,39.37
2023-02-09T16:14:44.323Z,41.77
2023-02-09T16:17:10.856Z,41.97
2023-02-09T16:19:37.481Z,40.63
2023-02-09T16:22:06.869Z,39.70
2023-02-09T16:24:44.818Z,37.60
2023-02-09T16:27:14.649Z,41.17
2023-02-09T16:29:41.336Z,38.47
2023-02-09T16:32:15.558Z,33.70
2023-02-09T16:34:42.329Z,34.27
2023-02-09T16:41:39.936Z,59.37
2023-02-09T16:44:15.679Z,36.63
2023-02-09T16:46:42.585Z,50.40
2023-02-09T16:49:14.683Z,51.40
2023-02-09T16:51:41.310Z,38.23
2023-02-09T16:54:09.798Z,45.87
2023-02-09T16:56:46.025Z,47.00
2023-02-09T16:59:19.226Z,46.90
2023-02-09T17:01:48.141Z,35.60
2023-02-09T17:04:15.464Z,40.33
2023-02-09T17:06:42.434Z,37.73
2023-02-09T17:09:14.646Z,38.70
2023-02-09T17:11:41.544Z,42.83
2023-02-09T17:14:08.545Z,43.20
2023-02-09T17:16:37.223Z,43.97
2023-02-09T17:19:05.329Z,40.70
2023-02-09T17:21:36.265Z,44.47
2023-02-09T17:24:05.177Z,49.50
2023-02-09T17:26:32.795Z,51.60
2023-02-09T17:28:59.686Z,48.53
2023-02-09T17:31:27.626Z,54.87
2023-02-09T17:33:56.052Z,48.23
2023-02-09T17:36:28.498Z,44.97
2023-02-09T17:38:57.639Z,47.50
2023-02-09T17:41:30.016Z,52.13
2023-02-09T17:44:07.893Z,43.57
2023-02-09T17:46:41.048Z,43.55
2023-02-09T17:49:07.742Z,49.63
2023-02-09T17:51:35.950Z,42.25
2023-02-09T17:54:06.672Z,41.90
2023-02-09T17:56:33.474Z,57.13
2023-02-09T17:59:02.954Z,43.95
2023-02-09T18:01:31.334Z,52.05
2023-02-09T18:03:59.089Z,48.15
2023-02-09T18:06:33.502Z,48.10
2023-02-09T18:09:01.380Z,51.38
2023-02-09T18:11:38.893Z,57.60
2023-02-09T18:14:05.416Z,49.42
2023-02-09T18:16:32.292Z,49.00
2023-02-09T18:18:58.953Z,40.10
2023-02-09T18:21:25.597Z,49.10
2023-02-09T18:23:52.238Z,48.72
2023-02-09T18:26:18.933Z,52.00
2023-02-09T18:28:45.474Z,52.20
2023-02-09T18:31:15.470Z,49.75
2023-02-09T18:33:42.231Z,51.25
2023-02-09T18:36:08.887Z,49.05
2023-02-09T18:38:35.811Z,44.37
2023-02-09T18:41:02.518Z,54.65
2023-02-09T18:43:29.313Z,55.33
2023-02-09T18:45:56.118Z,48.93
2023-02-09T18:48:22.782Z,58.70
2023-02-09T18:50:49.390Z,47.73
2023-02-09T18:53:15.990Z,48.37
2023-02-09T18:55:42.515Z,54.87
2023-02-09T18:58:12.151Z,63.43
2023-02-09T19:00:39.188Z,76.73
2023-02-09T19:03:05.918Z,72.80
2023-02-09T19:05:34.388Z,73.70
2023-02-09T19:08:01.079Z,67.83
2023-02-09T19:10:27.665Z,55.50
2023-02-09T19:12:55.444Z,75.60
2023-02-09T19:15:25.619Z,65.30
2023-02-09T19:17:52.152Z,66.67
2023-02-09T19:20:20.332Z,63.23
2023-02-09T19:22:53.228Z,63.40
2023-02-09T19:25:20.511Z,64.00
2023-02-09T19:27:47.487Z,57.90
2023-02-09T19:30:15.312Z,57.03
2023-02-09T19:32:41.890Z,56.23
2023-02-09T19:35:08.718Z,62.53
2023-02-09T19:37:36.528Z,61.87
2023-02-09T19:40:17.501Z,58.37
2023-02-09T19:42:44.122Z,58.77
2023-02-09T19:45:10.749Z,65.43
2023-02-09T19:47:37.492Z,58.30
2023-02-09T19:50:04.406Z,62.13
2023-02-09T19:52:31.021Z,64.50
2023-02-09T19:54:58.085Z,62.67
2023-02-09T19:57:24.879Z,61.00
2023-02-09T19:59:52.733Z,64.10
2023-02-09T20:02:19.257Z,66.03
2023-02-09T20:04:46.035Z,69.93
2023-02-09T20:07:13.386Z,59.20
2023-02-09T20:09:39.839Z,61.83
2023-02-09T20:12:06.604Z,64.07
2023-02-09T20:14:33.636Z,73.33
2023-02-09T20:17:00.476Z,66.97
2023-02-09T20:19:27.213Z,78.63
2023-02-09T20:21:53.863Z,64.30
2023-02-09T20:24:20.433Z,64.00
2023-02-09T20:26:48.307Z,73.50
2023-02-09T20:29:16.645Z,64.97
2023-02-09T20:31:43.544Z,69.70
2023-02-09T20:34:11.701Z,65.73
2023-02-09T20:36:39.627Z,71.73
2023-02-09T20:39:07.752Z,70.87
2023-02-09T20:41:34.273Z,64.30
2023-02-09T20:44:19.393Z,66.63
2023-02-09T20:46:58.168Z,70.77
2023-02-09T20:49:29.333Z,65.03
2023-02-09T20:51:56.016Z,67.30
2023-02-09T20:54:22.637Z,70.10
2023-02-09T20:56:49.115Z,82.70
2023-02-09T20:59:16.125Z,77.73
2023-02-09T21:01:42.747Z,72.40
2023-02-09T21:04:09.741Z,77.57
2023-02-09T21:06:39.860Z,77.77
2023-02-09T21:09:07.243Z,71.87
2023-02-09T21:11:34.022Z,72.07
2023-02-09T21:14:01.437Z,74.30
2023-02-09T21:16:28.724Z,79.43
2023-02-09T21:18:55.246Z,73.83
2023-02-09T21:21:22.272Z,71.77
2023-02-09T21:23:49.272Z,64.40
2023-02-09T21:26:16.751Z,77.63
2023-02-09T21:28:44.109Z,81.87
2023-02-09T21:31:18.951Z,68.37
2023-02-09T21:33:45.564Z,71.57
2023-02-09T21:36:12.080Z,78.57
2023-02-09T21:38:41.872Z,85.60
2023-02-09T21:41:08.598Z,80.17
2023-02-09T21:43:35.281Z,76.70
2023-02-09T21:46:01.825Z,76.43
2023-02-09T21:48:28.688Z,71.50
2023-02-09T21:50:55.477Z,74.40
2023-02-09T21:53:22.406Z,86.47
2023-02-09T21:55:48.831Z,81.27
2023-02-09T21:58:15.279Z,78.73
2023-02-09T22:00:41.736Z,79.53
2023-02-09T22:03:08.392Z,70.93
2023-02-09T22:05:35.071Z,72.07
2023-02-09T22:08:01.564Z,78.83
2023-02-09T22:10:28.230Z,78.47
2023-02-09T22:12:54.632Z,83.40
2023-02-09T22:15:21.222Z,80.30
2023-02-09T22:17:48.299Z,70.60
2023-02-09T22:20:14.811Z,76.80
2023-02-09T22:22:42.761Z,87.93
2023-02-09T22:25:09.530Z,75.80
2023-02-09T22:27:36.102Z,88.00
2023-02-09T22:30:02.556Z,84.40
2023-02-09T22:32:30.177Z,73.63
2023-02-09T22:34:56.729Z,72.00
2023-02-09T22:37:23.349Z,86.17
2023-02-09T22:39:50.180Z,87.33
2023-02-09T22:42:16.672Z,87.33
2023-02-09T22:44:43.197Z,86.80
2023-02-09T22:47:09.699Z,72.27
2023-02-09T22:49:36.213Z,85.70
2023-02-09T22:52:02.713Z,84.93
2023-02-09T22:54:29.268Z,84.73
2023-02-09T22:56:55.855Z,81.87
2023-02-09T22:59:22.585Z,81.50
2023-02-09T23:01:49.257Z,75.40
2023-02-09T23:04:15.841Z,77.20
2023-02-09T23:06:42.379Z,91.07
2023-02-09T23:09:09.160Z,78.50
2023-02-09T23:11:36.045Z,81.37
2023-02-09T23:14:10.956Z,86.77
2023-02-09T23:16:38.486Z,88.17
2023-02-09T23:19:06.431Z,87.83
2023-02-09T23:21:35.061Z,88.13
2023-02-09T23:24:02.222Z,83.53
2023-02-09T23:26:28.672Z,86.50
2023-02-09T23:28:57.229Z,92.40
2023-02-09T23:31:24.460Z,94.27
2023-02-09T23:33:51.004Z,87.03
2023-02-09T23:36:18.901Z,90.90
2023-02-09T23:38:46.118Z,87.63
2023-02-09T23:41:13.899Z,101.37
2023-02-09T23:43:40.365Z,97.90
2023-02-09T23:46:08.130Z,92.60
2023-02-09T23:48:34.811Z,96.80
2023-02-09T23:51:02.426Z,82.33
2023-02-09T23:53:29.370Z,93.60
2023-02-09T23:56:01.125Z,102.40
2023-02-09T23:58:27.606Z,86.17
